地図

経路データ

SID SEASON NUMBER BASIN SUBBASIN NAME ISO_TIME NATURE LAT LON WMO_WIND WMO_PRES WMO_AGENCY TRACK_TYPE DIST2LAND LANDFALL IFLAG USA_AGENCY USA_ATCF_ID USA_LAT USA_LON USA_RECORD USA_STATUS USA_WIND USA_PRES USA_SSHS USA_R34_NE USA_R34_SE USA_R34_SW USA_R34_NW USA_R50_NE USA_R50_SE USA_R50_SW USA_R50_NW USA_R64_NE USA_R64_SE USA_R64_SW USA_R64_NW USA_POCI USA_ROCI USA_RMW USA_EYE TOKYO_LAT TOKYO_LON TOKYO_GRADE TOKYO_WIND TOKYO_PRES TOKYO_R50_DIR TOKYO_R50_LONG TOKYO_R50_SHORT TOKYO_R30_DIR TOKYO_R30_LONG TOKYO_R30_SHORT TOKYO_LAND CMA_LAT CMA_LON CMA_CAT CMA_WIND CMA_PRES HKO_LAT HKO_LON HKO_CAT HKO_WIND HKO_PRES NEWDELHI_LAT NEWDELHI_LON NEWDELHI_GRADE NEWDELHI_WIND NEWDELHI_PRES NEWDELHI_CI NEWDELHI_DP NEWDELHI_POCI REUNION_LAT REUNION_LON REUNION_TYPE REUNION_WIND REUNION_PRES REUNION_TNUM REUNION_CI REUNION_RMW REUNION_R34_NE REUNION_R34_SE REUNION_R34_SW REUNION_R34_NW REUNION_R50_NE REUNION_R50_SE REUNION_R50_SW REUNION_R50_NW REUNION_R64_NE REUNION_R64_SE REUNION_R64_SW REUNION_R64_NW BOM_LAT BOM_LON BOM_TYPE BOM_WIND BOM_PRES BOM_TNUM BOM_CI BOM_RMW BOM_R34_NE BOM_R34_SE BOM_R34_SW BOM_R34_NW BOM_R50_NE BOM_R50_SE BOM_R50_SW BOM_R50_NW BOM_R64_NE BOM_R64_SE BOM_R64_SW BOM_R64_NW BOM_ROCI BOM_POCI BOM_EYE BOM_POS_METHOD BOM_PRES_METHOD NADI_LAT NADI_LON NADI_CAT NADI_WIND NADI_PRES WELLINGTON_LAT WELLINGTON_LON WELLINGTON_WIND WELLINGTON_PRES DS824_LAT DS824_LON DS824_STAGE DS824_WIND DS824_PRES TD9636_LAT TD9636_LON TD9636_STAGE TD9636_WIND TD9636_PRES TD9635_LAT TD9635_LON TD9635_WIND TD9635_PRES TD9635_ROCI NEUMANN_LAT NEUMANN_LON NEUMANN_CLASS NEUMANN_WIND NEUMANN_PRES MLC_LAT MLC_LON MLC_CLASS MLC_WIND MLC_PRES USA_GUST BOM_GUST BOM_GUST_PER REUNION_GUST REUNION_GUST_PER USA_SEAHGT USA_SEARAD_NE USA_SEARAD_SE USA_SEARAD_SW USA_SEARAD_NW STORM_SPEED STORM_DIR
1881041S13082 1881 5 SI MM NOT_NAMED 1881-02-10 00:00:00 TS -13.3000 81.7000 main 2154 2153 _________O____ -1 -13.3000 81.7000 TC 6 251
1881041S13082 1881 5 SI MM NOT_NAMED 1881-02-10 03:00:00 TS -13.4001 81.3976 main 2164 2163 _________P____ -1 -13.4001 81.3976 TC 6 251
1881041S13082 1881 5 SI MM NOT_NAMED 1881-02-10 06:00:00 TS -13.5000 81.1000 main 2174 2173 _________O____ -1 -13.5000 81.1000 TC 6 251
1881041S13082 1881 5 SI MM NOT_NAMED 1881-02-10 09:00:00 TS -13.5999 80.8075 main 2184 2184 _________P____ -1 -13.5999 80.8075 TC 6 251
1881041S13082 1881 5 SI MM NOT_NAMED 1881-02-10 12:00:00 TS -13.7000 80.5000 main 2195 2195 _________O____ -1 -13.7000 80.5000 TC 7 253
1881041S13082 1881 5 SI MM NOT_NAMED 1881-02-10 15:00:00 TS -13.7925 80.1500 main 2207 2207 _________P____ -1 -13.7925 80.1500 TC 7 254
1881041S13082 1881 5 SI MM NOT_NAMED 1881-02-10 18:00:00 TS -13.9000 79.8000 main 2220 2220 _________O____ -1 -13.9000 79.8000 TC 7 249
1881041S13082 1881 5 SI MM NOT_NAMED 1881-02-10 21:00:00 TS -14.0424 79.4925 main 2232 2232 _________P____ -1 -14.0424 79.4925 TC 7 243
1881041S13082 1881 5 SI MM NOT_NAMED 1881-02-11 00:00:00 TS -14.2000 79.2000 main 2257 2257 _________O____ -1 -14.2000 79.2000 TC 7 241
1881041S13082 1881 5 SI MM NOT_NAMED 1881-02-11 03:00:00 TS -14.3575 78.9000 main 2281 2281 _________P____ -1 -14.3575 78.9000 TC 7 243
1881041S13082 1881 5 SI MM NOT_NAMED 1881-02-11 06:00:00 TS -14.5000 78.6000 main 2296 2264 _________O____ -1 -14.5000 78.6000 TC 6 247
1881041S13082 1881 5 SI MM NOT_NAMED 1881-02-11 09:00:00 TS -14.6000 78.2999 main 2264 2230 _________P____ -1 -14.6000 78.2999 TC 6 251
1881041S13082 1881 5 SI MM NOT_NAMED 1881-02-11 12:00:00 TS -14.7000 78.0000 main 2230 2196 _________O____ -1 -14.7000 78.0000 TC 6 246
1881041S13082 1881 5 SI MM NOT_NAMED 1881-02-11 15:00:00 TS -14.8499 77.7075 main 2196 2158 _________P____ -1 -14.8499 77.7075 TC 7 243
1881041S13082 1881 5 SI MM NOT_NAMED 1881-02-11 18:00:00 TS -15.0000 77.4000 main 2158 2124 _________O____ -1 -15.0000 77.4000 TC 7 248
1881041S13082 1881 5 SI MM NOT_NAMED 1881-02-11 21:00:00 TS -15.0999 77.0649 main 2124 2079 _________P____ -1 -15.0999 77.0649 TC 7 254
1881041S13082 1881 5 SI MM NOT_NAMED 1881-02-12 00:00:00 TS -15.2000 76.7000 main 2079 2035 _________O____ -1 -15.2000 76.7000 TC 8 252
1881041S13082 1881 5 SI MM NOT_NAMED 1881-02-12 03:00:00 TS -15.3425 76.3000 main 2035 1987 _________P____ -1 -15.3425 76.3000 TC 8 249
1881041S13082 1881 5 SI MM NOT_NAMED 1881-02-12 06:00:00 TS -15.5000 75.9000 main 1987 1953 _________O____ -1 -15.5000 75.9000 TC 8 247
1881041S13082 1881 5 SI MM NOT_NAMED 1881-02-12 09:00:00 TS -15.6574 75.5350 main 1940 1906 _________P____ -1 -15.6574 75.5350 TC 7 246
1881041S13082 1881 5 SI MM NOT_NAMED 1881-02-12 12:00:00 TS -15.8000 75.2000 main 1906 1872 _________O____ -1 -15.8000 75.2000 TC 7 249
1881041S13082 1881 5 SI MM NOT_NAMED 1881-02-12 15:00:00 TS -15.8999 74.8924 main 1872 1838 _________P____ -1 -15.8999 74.8924 TC 6 251
1881041S13082 1881 5 SI MM NOT_NAMED 1881-02-12 18:00:00 TS -16.0000 74.6000 main 1838 1804 _________O____ -1 -16.0000 74.6000 TC 6 247
1881041S13082 1881 5 SI MM NOT_NAMED 1881-02-12 21:00:00 TS -16.1425 74.3000 main 1804 1767 _________P____ -1 -16.1425 74.3000 TC 7 242
1881041S13082 1881 5 SI MM NOT_NAMED 1881-02-13 00:00:00 TS -16.3000 74.0000 main 1767 1733 _________O____ -1 -16.3000 74.0000 TC 7 242
1881041S13082 1881 5 SI MM NOT_NAMED 1881-02-13 03:00:00 TS -16.4500 73.7000 main 1733 1696 _________P____ -1 -16.4500 73.7000 TC 7 242
1881041S13082 1881 5 SI MM NOT_NAMED 1881-02-13 06:00:00 TS -16.6000 73.4000 main 1696 1662 _________O____ -1 -16.6000 73.4000 TC 7 242
1881041S13082 1881 5 SI MM NOT_NAMED 1881-02-13 09:00:00 TS -16.7500 73.1000 main 1662 1625 _________P____ -1 -16.7500 73.1000 TC 6 242
1881041S13082 1881 5 SI MM NOT_NAMED 1881-02-13 12:00:00 TS -16.9000 72.8000 main 1625 1591 _________O____ -1 -16.9000 72.8000 TC 7 242
1881041S13082 1881 5 SI MM NOT_NAMED 1881-02-13 15:00:00 TS -17.0575 72.5000 main 1588 1554 _________P____ -1 -17.0575 72.5000 TC 6 242
1881041S13082 1881 5 SI MM NOT_NAMED 1881-02-13 18:00:00 TS -17.2000 72.2000 main 1554 1521 _________O____ -1 -17.2000 72.2000 TC 6 247
1881041S13082 1881 5 SI MM NOT_NAMED 1881-02-13 21:00:00 TS -17.2923 71.9298 main 1521 1487 _________P____ -1 -17.2923 71.9298 TC 6 251
1881041S13082 1881 5 SI MM NOT_NAMED 1881-02-14 00:00:00 TS -17.4000 71.6000 main 1487 1440 _________O____ -1 -17.4000 71.6000 TC 8 250
1881041S13082 1881 5 SI MM NOT_NAMED 1881-02-14 03:00:00 TS -17.5776 71.1225 main 1430 1373 _________P____ -1 -17.5776 71.1225 TC 10 247
1881041S13082 1881 5 SI MM NOT_NAMED 1881-02-14 06:00:00 TS -17.8000 70.6000 main 1373 1327 _________O____ -1 -17.8000 70.6000 TC 10 243
1881041S13082 1881 5 SI MM NOT_NAMED 1881-02-14 09:00:00 TS -18.0498 70.1499 main 1317 1268 _________P____ -1 -18.0498 70.1499 TC 10 240
1881041S13082 1881 5 SI MM NOT_NAMED 1881-02-14 12:00:00 TS -18.3000 69.7000 main 1268 1212 _________O____ -1 -18.3000 69.7000 TC 10 243
1881041S13082 1881 5 SI MM NOT_NAMED 1881-02-14 15:00:00 TS -18.4999 69.2073 main 1212 1156 _________P____ -1 -18.4999 69.2073 TC 10 247
1881041S13082 1881 5 SI MM NOT_NAMED 1881-02-14 18:00:00 TS -18.7000 68.7000 main 1156 1100 _________O____ -1 -18.7000 68.7000 TC 11 245
1881041S13082 1881 5 SI MM NOT_NAMED 1881-02-14 21:00:00 TS -18.9500 68.1776 main 1098 1043 _________P____ -1 -18.9500 68.1776 TC 11 242
1881041S13082 1881 5 SI MM NOT_NAMED 1881-02-15 00:00:00 TS -19.2000 67.7000 main 1043 1008 _________O____ -1 -19.2000 67.7000 TC 9 240
1881041S13082 1881 5 SI MM NOT_NAMED 1881-02-15 03:00:00 TS -19.4072 67.3347 main 998 964 _________P____ -1 -19.4072 67.3347 TC 8 239
1881041S13082 1881 5 SI MM NOT_NAMED 1881-02-15 06:00:00 TS -19.6000 67.0000 main 964 920 _________O____ -1 -19.6000 67.0000 TC 8 240
1881041S13082 1881 5 SI MM NOT_NAMED 1881-02-15 09:00:00 TS -19.8000 66.6074 main 920 877 _________P____ -1 -19.8000 66.6074 TC 9 242
1881041S13082 1881 5 SI MM NOT_NAMED 1881-02-15 12:00:00 TS -20.0000 66.2000 main 877 834 _________O____ -1 -20.0000 66.2000 TC 9 242
1881041S13082 1881 5 SI MM NOT_NAMED 1881-02-15 15:00:00 TS -20.2074 65.8000 main 834 792 _________P____ -1 -20.2074 65.8000 TC 9 242
1881041S13082 1881 5 SI MM NOT_NAMED 1881-02-15 18:00:00 TS -20.4000 65.4000 main 792 750 _________O____ -1 -20.4000 65.4000 TC 8 245
1881041S13082 1881 5 SI MM NOT_NAMED 1881-02-15 21:00:00 TS -20.5497 65.0222 main 750 709 _________P____ -1 -20.5497 65.0222 TC 8 248
1881041S13082 1881 5 SI MM NOT_NAMED 1881-02-16 00:00:00 TS -20.7000 64.6000 main 709 659 _________O____ -1 -20.7000 64.6000 TC 10 249
1881041S13082 1881 5 SI MM NOT_NAMED 1881-02-16 03:00:00 TS -20.8851 64.0649 main 659 599 _________P____ -1 -20.8851 64.0649 TC 11 249
1881041S13082 1881 5 SI MM NOT_NAMED 1881-02-16 06:00:00 TS -21.1000 63.5000 main 599 551 _________O____ -1 -21.1000 63.5000 TC 11 245
1881041S13082 1881 5 SI MM NOT_NAMED 1881-02-16 09:00:00 TS -21.3498 62.9925 main 551 509 _________P____ -1 -21.3498 62.9925 TC 11 242
1881041S13082 1881 5 SI MM NOT_NAMED 1881-02-16 12:00:00 TS -21.6000 62.5000 main 509 466 _________O____ -1 -21.6000 62.5000 TC 10 244
1881041S13082 1881 5 SI MM NOT_NAMED 1881-02-16 15:00:00 TS -21.7999 61.9922 main 466 427 _________P____ -1 -21.7999 61.9922 TC 10 247
1881041S13082 1881 5 SI MM NOT_NAMED 1881-02-16 18:00:00 TS -22.0000 61.5000 main 427 400 _________O____ -1 -22.0000 61.5000 TC 10 243
1881041S13082 1881 5 SI MM NOT_NAMED 1881-02-16 21:00:00 TS -22.2499 61.0350 main 390 374 _________P____ -1 -22.2499 61.0350 TC 10 239
1881041S13082 1881 5 SI MM NOT_NAMED 1881-02-17 00:00:00 TS -22.5000 60.6000 main 374 356 _________O____ -1 -22.5000 60.6000 TC 9 240
1881041S13082 1881 5 SI MM NOT_NAMED 1881-02-17 03:00:00 TS -22.7074 60.1848 main 356 343 _________P____ -1 -22.7074 60.1848 TC 8 242
1881041S13082 1881 5 SI MM NOT_NAMED 1881-02-17 06:00:00 TS -22.9000 59.8000 main 345 335 _________O____ -1 -22.9000 59.8000 TC 8 240
1881041S13082 1881 5 SI MM NOT_NAMED 1881-02-17 09:00:00 TS -23.0923 59.4572 main 344 339 _________P____ -1 -23.0923 59.4572 TC 8 238
1881041S13082 1881 5 SI MM NOT_NAMED 1881-02-17 12:00:00 TS -23.3000 59.1000 main 344 340 _________O____ -1 -23.3000 59.1000 TC 9 239
1881041S13082 1881 5 SI MM NOT_NAMED 1881-02-17 15:00:00 TS -23.5426 58.6575 main 350 350 _________P____ -1 -23.5426 58.6575 TC 10 239
1881041S13082 1881 5 SI MM NOT_NAMED 1881-02-17 18:00:00 TS -23.8000 58.2000 main 372 364 _________O____ -1 -23.8000 58.2000 TC 9 238
1881041S13082 1881 5 SI MM NOT_NAMED 1881-02-17 21:00:00 TS -24.0499 57.7849 main 364 363 _________P____ -1 -24.0499 57.7849 TC 9 236
1881041S13082 1881 5 SI MM NOT_NAMED 1881-02-18 00:00:00 TS -24.3000 57.4000 main 372 367 _________O____ -1 -24.3000 57.4000 TC 8 233
1881041S13082 1881 5 SI MM NOT_NAMED 1881-02-18 03:00:00 TS -24.5574 57.0424 main 385 381 _________P____ -1 -24.5574 57.0424 TC 8 232
1881041S13082 1881 5 SI MM NOT_NAMED 1881-02-18 06:00:00 TS -24.8000 56.7000 main 396 393 _________O____ -1 -24.8000 56.7000 TC 8 235
1881041S13082 1881 5 SI MM NOT_NAMED 1881-02-18 09:00:00 TS -24.9999 56.3498 main 408 408 _________P____ -1 -24.9999 56.3498 TC 8 238
1881041S13082 1881 5 SI MM NOT_NAMED 1881-02-18 12:00:00 TS -25.2000 56.0000 main 426 425 _________O____ -1 -25.2000 56.0000 TC 8 234
1881041S13082 1881 5 SI MM NOT_NAMED 1881-02-18 15:00:00 TS -25.4499 55.6574 main 447 447 _________P____ -1 -25.4499 55.6574 TC 8 232
1881041S13082 1881 5 SI MM NOT_NAMED 1881-02-18 18:00:00 TS -25.7000 55.3000 main 481 481 _________O____ -1 -25.7000 55.3000 TC 8 236
1881041S13082 1881 5 SI MM NOT_NAMED 1881-02-18 21:00:00 TS -25.9128 54.9102 main 507 507 _________P____ -1 -25.9128 54.9102 TC 8 241
1881041S13082 1881 5 SI MM NOT_NAMED 1881-02-19 00:00:00 TS -26.1000 54.5000 main 537 _________O____ -1 -26.1000 54.5000 TC 8 243

IBTrACS Databaseについて

本データベースは、米国NOAAが公開する1842年以降の世界の熱帯低気圧のベストトラックデータアーカイブInternational Best Track Archive for Climate Stewardship (IBTrACS)を、ウェブで閲覧しやすい形式に変換したものです。

最終更新日:2021-10-08